sensor_id;sensor_type;location;lat;lon;timestamp;P1;durP1;ratioP1;P2;durP2;ratioP2
76433;SDS011;65265;53.200;6.080;2023-11-18T00:00:52;23.80;;;13.02;;
76433;SDS011;65265;53.200;6.080;2023-11-18T00:05:44;21.65;;;12.25;;
76433;SDS011;65265;53.200;6.080;2023-11-18T00:10:36;30.17;;;13.43;;
76433;SDS011;65265;53.200;6.080;2023-11-18T00:15:32;29.05;;;13.40;;
76433;SDS011;65265;53.200;6.080;2023-11-18T00:20:26;21.45;;;12.77;;
76433;SDS011;65265;53.200;6.080;2023-11-18T00:25:21;24.17;;;12.73;;
76433;SDS011;65265;53.200;6.080;2023-11-18T00:30:14;25.83;;;12.77;;
76433;SDS011;65265;53.200;6.080;2023-11-18T00:35:09;25.65;;;13.27;;
76433;SDS011;65265;53.200;6.080;2023-11-18T00:40:02;30.58;;;15.52;;
76433;SDS011;65265;53.200;6.080;2023-11-18T00:44:55;33.97;;;14.98;;
76433;SDS011;65265;53.200;6.080;2023-11-18T00:49:47;29.08;;;13.77;;
76433;SDS011;65265;53.200;6.080;2023-11-18T00:54:46;33.85;;;16.08;;
76433;SDS011;65265;53.200;6.080;2023-11-18T00:59:41;30.17;;;14.63;;
76433;SDS011;65265;53.200;6.080;2023-11-18T01:04:35;29.90;;;12.90;;
76433;SDS011;65265;53.200;6.080;2023-11-18T01:09:27;30.70;;;14.55;;
76433;SDS011;65265;53.200;6.080;2023-11-18T01:14:23;31.48;;;15.63;;
76433;SDS011;65265;53.200;6.080;2023-11-18T01:19:15;34.30;;;14.70;;
76433;SDS011;65265;53.200;6.080;2023-11-18T01:24:08;34.30;;;15.02;;
76433;SDS011;65265;53.200;6.080;2023-11-18T01:29:02;40.03;;;17.33;;
76433;SDS011;65265;53.200;6.080;2023-11-18T01:33:56;36.65;;;15.70;;
76433;SDS011;65265;53.200;6.080;2023-11-18T01:38:50;33.70;;;16.55;;
76433;SDS011;65265;53.200;6.080;2023-11-18T01:43:45;34.00;;;17.13;;
76433;SDS011;65265;53.200;6.080;2023-11-18T01:48:39;34.25;;;16.67;;
76433;SDS011;65265;53.200;6.080;2023-11-18T01:53:36;34.17;;;15.90;;
76433;SDS011;65265;53.200;6.080;2023-11-18T01:58:30;36.85;;;17.60;;
76433;SDS011;65265;53.200;6.080;2023-11-18T02:03:23;43.63;;;17.83;;
76433;SDS011;65265;53.200;6.080;2023-11-18T02:08:17;27.15;;;15.18;;
76433;SDS011;65265;53.200;6.080;2023-11-18T02:13:13;38.20;;;16.50;;
76433;SDS011;65265;53.200;6.080;2023-11-18T02:18:18;37.25;;;18.15;;
76433;SDS011;65265;53.200;6.080;2023-11-18T02:23:12;33.60;;;15.95;;
76433;SDS011;65265;53.200;6.080;2023-11-18T02:28:09;38.30;;;17.38;;
76433;SDS011;65265;53.200;6.080;2023-11-18T02:33:03;36.75;;;16.13;;
76433;SDS011;65265;53.200;6.080;2023-11-18T02:38:05;41.20;;;16.40;;
76433;SDS011;65265;53.200;6.080;2023-11-18T02:43:01;37.53;;;16.33;;
76433;SDS011;65265;53.200;6.080;2023-11-18T02:47:57;39.20;;;18.63;;
76433;SDS011;65265;53.200;6.080;2023-11-18T02:52:50;43.10;;;18.58;;
76433;SDS011;65265;53.200;6.080;2023-11-18T02:57:43;45.83;;;18.35;;
76433;SDS011;65265;53.200;6.080;2023-11-18T03:02:37;42.25;;;18.33;;
76433;SDS011;65265;53.200;6.080;2023-11-18T03:07:35;38.03;;;18.13;;
76433;SDS011;65265;53.200;6.080;2023-11-18T03:12:28;41.90;;;17.38;;
76433;SDS011;65265;53.200;6.080;2023-11-18T03:22:13;37.33;;;17.90;;
76433;SDS011;65265;53.200;6.080;2023-11-18T03:27:07;49.00;;;17.42;;
76433;SDS011;65265;53.200;6.080;2023-11-18T03:32:00;43.47;;;17.08;;
76433;SDS011;65265;53.200;6.080;2023-11-18T03:36:52;41.20;;;17.58;;
76433;SDS011;65265;53.200;6.080;2023-11-18T03:41:47;41.70;;;17.30;;
76433;SDS011;65265;53.200;6.080;2023-11-18T03:46:43;39.08;;;17.58;;
76433;SDS011;65265;53.200;6.080;2023-11-18T03:51:37;41.15;;;16.73;;
76433;SDS011;65265;53.200;6.080;2023-11-18T03:56:28;42.30;;;17.65;;
76433;SDS011;65265;53.200;6.080;2023-11-18T04:01:21;43.75;;;19.17;;
76433;SDS011;65265;53.200;6.080;2023-11-18T04:06:16;37.30;;;18.00;;
76433;SDS011;65265;53.200;6.080;2023-11-18T04:11:08;41.58;;;18.92;;
76433;SDS011;65265;53.200;6.080;2023-11-18T04:16:01;41.72;;;19.17;;
76433;SDS011;65265;53.200;6.080;2023-11-18T04:20:54;41.83;;;20.83;;
76433;SDS011;65265;53.200;6.080;2023-11-18T04:25:51;40.38;;;20.52;;
76433;SDS011;65265;53.200;6.080;2023-11-18T04:30:43;40.90;;;18.10;;
76433;SDS011;65265;53.200;6.080;2023-11-18T04:35:35;46.03;;;20.30;;
76433;SDS011;65265;53.200;6.080;2023-11-18T04:40:28;47.05;;;18.13;;
76433;SDS011;65265;53.200;6.080;2023-11-18T04:45:24;44.83;;;18.70;;
76433;SDS011;65265;53.200;6.080;2023-11-18T04:50:17;42.85;;;18.23;;
76433;SDS011;65265;53.200;6.080;2023-11-18T04:55:09;39.40;;;18.67;;
76433;SDS011;65265;53.200;6.080;2023-11-18T05:00:03;39.33;;;17.90;;
76433;SDS011;65265;53.200;6.080;2023-11-18T05:05:04;48.70;;;19.35;;
76433;SDS011;65265;53.200;6.080;2023-11-18T05:09:57;40.55;;;16.38;;
76433;SDS011;65265;53.200;6.080;2023-11-18T05:14:52;39.58;;;16.67;;
76433;SDS011;65265;53.200;6.080;2023-11-18T05:19:45;36.35;;;16.00;;
76433;SDS011;65265;53.200;6.080;2023-11-18T05:24:40;37.40;;;17.98;;
76433;SDS011;65265;53.200;6.080;2023-11-18T05:29:33;36.55;;;17.92;;
76433;SDS011;65265;53.200;6.080;2023-11-18T05:34:25;43.15;;;17.48;;
76433;SDS011;65265;53.200;6.080;2023-11-18T05:39:18;33.83;;;16.00;;
76433;SDS011;65265;53.200;6.080;2023-11-18T05:44:14;37.05;;;17.33;;
76433;SDS011;65265;53.200;6.080;2023-11-18T05:49:09;32.65;;;19.00;;
76433;SDS011;65265;53.200;6.080;2023-11-18T05:54:04;37.67;;;17.10;;
76433;SDS011;65265;53.200;6.080;2023-11-18T05:58:57;33.85;;;16.88;;
76433;SDS011;65265;53.200;6.080;2023-11-18T06:03:51;33.10;;;15.45;;
76433;SDS011;65265;53.200;6.080;2023-11-18T06:08:44;40.92;;;20.08;;
76433;SDS011;65265;53.200;6.080;2023-11-18T06:13:38;35.78;;;16.33;;
76433;SDS011;65265;53.200;6.080;2023-11-18T06:18:33;40.65;;;17.98;;
76433;SDS011;65265;53.200;6.080;2023-11-18T06:23:29;41.60;;;17.63;;
76433;SDS011;65265;53.200;6.080;2023-11-18T06:28:23;38.13;;;18.27;;
76433;SDS011;65265;53.200;6.080;2023-11-18T06:33:16;41.72;;;18.50;;
76433;SDS011;65265;53.200;6.080;2023-11-18T06:38:13;39.67;;;19.45;;
76433;SDS011;65265;53.200;6.080;2023-11-18T06:43:11;43.67;;;18.95;;
76433;SDS011;65265;53.200;6.080;2023-11-18T06:48:03;45.05;;;19.42;;
76433;SDS011;65265;53.200;6.080;2023-11-18T06:57:49;41.05;;;16.83;;
76433;SDS011;65265;53.200;6.080;2023-11-18T07:02:45;39.75;;;18.52;;
76433;SDS011;65265;53.200;6.080;2023-11-18T07:07:37;43.22;;;19.48;;
76433;SDS011;65265;53.200;6.080;2023-11-18T07:12:31;43.65;;;19.58;;
76433;SDS011;65265;53.200;6.080;2023-11-18T07:17:27;40.75;;;16.73;;
76433;SDS011;65265;53.200;6.080;2023-11-18T07:22:22;45.05;;;16.98;;
76433;SDS011;65265;53.200;6.080;2023-11-18T07:27:15;46.42;;;18.80;;
76433;SDS011;65265;53.200;6.080;2023-11-18T07:32:09;39.45;;;16.77;;
76433;SDS011;65265;53.200;6.080;2023-11-18T07:37:02;48.47;;;19.27;;
76433;SDS011;65265;53.200;6.080;2023-11-18T07:41:57;43.88;;;17.70;;
76433;SDS011;65265;53.200;6.080;2023-11-18T07:46:49;37.78;;;16.40;;
76433;SDS011;65265;53.200;6.080;2023-11-18T07:51:42;43.67;;;18.15;;
76433;SDS011;65265;53.200;6.080;2023-11-18T07:56:34;39.53;;;17.02;;
76433;SDS011;65265;53.200;6.080;2023-11-18T08:01:28;41.53;;;16.95;;
76433;SDS011;65265;53.200;6.080;2023-11-18T08:06:24;36.15;;;17.35;;
76433;SDS011;65265;53.200;6.080;2023-11-18T08:11:17;36.97;;;16.45;;
76433;SDS011;65265;53.200;6.080;2023-11-18T08:16:10;39.00;;;16.30;;
76433;SDS011;65265;53.200;6.080;2023-11-18T08:21:06;39.08;;;15.88;;
76433;SDS011;65265;53.200;6.080;2023-11-18T08:25:59;41.85;;;15.95;;
76433;SDS011;65265;53.200;6.080;2023-11-18T08:30:52;46.08;;;21.38;;
76433;SDS011;65265;53.200;6.080;2023-11-18T08:35:45;33.67;;;16.35;;
76433;SDS011;65265;53.200;6.080;2023-11-18T08:40:39;37.85;;;16.30;;
76433;SDS011;65265;53.200;6.080;2023-11-18T08:45:33;40.38;;;16.55;;
76433;SDS011;65265;53.200;6.080;2023-11-18T08:50:26;50.60;;;18.75;;
76433;SDS011;65265;53.200;6.080;2023-11-18T08:55:21;42.92;;;16.35;;
76433;SDS011;65265;53.200;6.080;2023-11-18T09:00:20;40.10;;;16.10;;
76433;SDS011;65265;53.200;6.080;2023-11-18T09:05:29;36.03;;;16.05;;
76433;SDS011;65265;53.200;6.080;2023-11-18T09:10:22;43.45;;;16.30;;
76433;SDS011;65265;53.200;6.080;2023-11-18T09:15:14;41.25;;;17.83;;
76433;SDS011;65265;53.200;6.080;2023-11-18T09:20:18;43.20;;;17.10;;
76433;SDS011;65265;53.200;6.080;2023-11-18T09:25:13;32.55;;;14.95;;
76433;SDS011;65265;53.200;6.080;2023-11-18T09:30:05;35.75;;;15.07;;
76433;SDS011;65265;53.200;6.080;2023-11-18T09:35:04;36.80;;;13.80;;
76433;SDS011;65265;53.200;6.080;2023-11-18T09:40:03;41.97;;;15.25;;
76433;SDS011;65265;53.200;6.080;2023-11-18T09:45:01;38.67;;;15.57;;
76433;SDS011;65265;53.200;6.080;2023-11-18T09:49:56;37.20;;;15.45;;
76433;SDS011;65265;53.200;6.080;2023-11-18T09:54:50;35.15;;;15.07;;
76433;SDS011;65265;53.200;6.080;2023-11-18T09:59:57;43.17;;;15.98;;
76433;SDS011;65265;53.200;6.080;2023-11-18T10:05:01;42.53;;;19.10;;
76433;SDS011;65265;53.200;6.080;2023-11-18T10:10:03;38.53;;;17.55;;
76433;SDS011;65265;53.200;6.080;2023-11-18T10:15:09;38.58;;;16.38;;
76433;SDS011;65265;53.200;6.080;2023-11-18T10:20:08;35.97;;;16.88;;
76433;SDS011;65265;53.200;6.080;2023-11-18T10:25:07;40.95;;;17.67;;
76433;SDS011;65265;53.200;6.080;2023-11-18T10:30:01;35.00;;;16.02;;
76433;SDS011;65265;53.200;6.080;2023-11-18T10:35:11;40.17;;;15.60;;
76433;SDS011;65265;53.200;6.080;2023-11-18T10:40:04;42.38;;;18.20;;
76433;SDS011;65265;53.200;6.080;2023-11-18T10:44:59;36.45;;;16.25;;
76433;SDS011;65265;53.200;6.080;2023-11-18T10:49:53;45.63;;;17.02;;
76433;SDS011;65265;53.200;6.080;2023-11-18T10:55:01;41.70;;;16.38;;
76433;SDS011;65265;53.200;6.080;2023-11-18T11:00:02;41.65;;;16.15;;
76433;SDS011;65265;53.200;6.080;2023-11-18T11:05:05;39.08;;;16.80;;
76433;SDS011;65265;53.200;6.080;2023-11-18T11:10:00;41.78;;;16.27;;
76433;SDS011;65265;53.200;6.080;2023-11-18T11:14:56;38.65;;;16.20;;
76433;SDS011;65265;53.200;6.080;2023-11-18T11:19:55;41.38;;;17.63;;
76433;SDS011;65265;53.200;6.080;2023-11-18T11:25:07;39.47;;;15.20;;
76433;SDS011;65265;53.200;6.080;2023-11-18T11:30:14;40.17;;;16.88;;
76433;SDS011;65265;53.200;6.080;2023-11-18T11:35:16;40.80;;;17.90;;
76433;SDS011;65265;53.200;6.080;2023-11-18T11:40:15;36.58;;;16.02;;
76433;SDS011;65265;53.200;6.080;2023-11-18T11:45:13;41.38;;;18.73;;
76433;SDS011;65265;53.200;6.080;2023-11-18T11:50:11;48.42;;;18.95;;
76433;SDS011;65265;53.200;6.080;2023-11-18T11:55:12;47.13;;;18.13;;
76433;SDS011;65265;53.200;6.080;2023-11-18T12:00:15;47.58;;;20.02;;
76433;SDS011;65265;53.200;6.080;2023-11-18T12:05:07;51.00;;;19.88;;
76433;SDS011;65265;53.200;6.080;2023-11-18T12:10:09;53.28;;;20.70;;
76433;SDS011;65265;53.200;6.080;2023-11-18T12:15:13;47.83;;;22.10;;
76433;SDS011;65265;53.200;6.080;2023-11-18T12:20:12;46.45;;;19.90;;
76433;SDS011;65265;53.200;6.080;2023-11-18T12:25:32;39.78;;;17.55;;
76433;SDS011;65265;53.200;6.080;2023-11-18T12:30:41;36.35;;;17.40;;
76433;SDS011;65265;53.200;6.080;2023-11-18T12:41:43;35.65;;;15.30;;
76433;SDS011;65265;53.200;6.080;2023-11-18T12:46:53;31.67;;;14.02;;
76433;SDS011;65265;53.200;6.080;2023-11-18T12:51:46;32.10;;;14.00;;
76433;SDS011;65265;53.200;6.080;2023-11-18T12:56:39;25.35;;;12.05;;
76433;SDS011;65265;53.200;6.080;2023-11-18T13:01:35;26.05;;;13.63;;
76433;SDS011;65265;53.200;6.080;2023-11-18T13:06:30;23.35;;;12.30;;
76433;SDS011;65265;53.200;6.080;2023-11-18T13:11:23;23.05;;;11.88;;
76433;SDS011;65265;53.200;6.080;2023-11-18T13:16:17;25.02;;;12.00;;
76433;SDS011;65265;53.200;6.080;2023-11-18T13:21:13;24.15;;;10.05;;
76433;SDS011;65265;53.200;6.080;2023-11-18T13:26:09;20.73;;;10.27;;
76433;SDS011;65265;53.200;6.080;2023-11-18T13:31:03;21.75;;;10.88;;
76433;SDS011;65265;53.200;6.080;2023-11-18T13:35:58;26.70;;;10.00;;
76433;SDS011;65265;53.200;6.080;2023-11-18T13:40:51;23.10;;;10.38;;
76433;SDS011;65265;53.200;6.080;2023-11-18T13:45:52;20.90;;;10.80;;
76433;SDS011;65265;53.200;6.080;2023-11-18T13:50:44;20.10;;;10.00;;
76433;SDS011;65265;53.200;6.080;2023-11-18T13:55:36;24.48;;;10.70;;
76433;SDS011;65265;53.200;6.080;2023-11-18T14:00:29;25.10;;;9.77;;
76433;SDS011;65265;53.200;6.080;2023-11-18T14:10:16;18.05;;;9.40;;
76433;SDS011;65265;53.200;6.080;2023-11-18T14:15:10;21.05;;;10.60;;
76433;SDS011;65265;53.200;6.080;2023-11-18T14:20:06;19.08;;;10.57;;
76433;SDS011;65265;53.200;6.080;2023-11-18T14:25:06;18.88;;;10.40;;
76433;SDS011;65265;53.200;6.080;2023-11-18T14:29:58;19.85;;;9.85;;
76433;SDS011;65265;53.200;6.080;2023-11-18T14:34:51;19.42;;;9.40;;
76433;SDS011;65265;53.200;6.080;2023-11-18T14:39:44;21.05;;;9.93;;
76433;SDS011;65265;53.200;6.080;2023-11-18T14:44:41;24.00;;;10.70;;
76433;SDS011;65265;53.200;6.080;2023-11-18T14:49:34;15.68;;;9.57;;
76433;SDS011;65265;53.200;6.080;2023-11-18T14:54:27;14.32;;;8.68;;
76433;SDS011;65265;53.200;6.080;2023-11-18T14:59:26;23.05;;;12.95;;
76433;SDS011;65265;53.200;6.080;2023-11-18T15:04:19;18.48;;;8.82;;
76433;SDS011;65265;53.200;6.080;2023-11-18T15:09:13;22.55;;;10.05;;
76433;SDS011;65265;53.200;6.080;2023-11-18T15:14:06;13.55;;;8.20;;
76433;SDS011;65265;53.200;6.080;2023-11-18T15:19:02;12.32;;;7.55;;
76433;SDS011;65265;53.200;6.080;2023-11-18T15:23:59;15.40;;;7.80;;
76433;SDS011;65265;53.200;6.080;2023-11-18T15:28:52;14.90;;;7.20;;
76433;SDS011;65265;53.200;6.080;2023-11-18T15:33:44;12.00;;;7.30;;
76433;SDS011;65265;53.200;6.080;2023-11-18T15:38:37;13.98;;;7.72;;
76433;SDS011;65265;53.200;6.080;2023-11-18T15:43:32;13.75;;;8.13;;
76433;SDS011;65265;53.200;6.080;2023-11-18T15:48:24;14.90;;;7.72;;
76433;SDS011;65265;53.200;6.080;2023-11-18T15:53:17;15.63;;;7.72;;
76433;SDS011;65265;53.200;6.080;2023-11-18T15:58:10;14.00;;;7.90;;
76433;SDS011;65265;53.200;6.080;2023-11-18T16:08:00;13.85;;;7.93;;
76433;SDS011;65265;53.200;6.080;2023-11-18T16:12:53;15.07;;;8.52;;
76433;SDS011;65265;53.200;6.080;2023-11-18T16:17:46;13.00;;;7.75;;
76433;SDS011;65265;53.200;6.080;2023-11-18T16:27:37;11.65;;;7.15;;
76433;SDS011;65265;53.200;6.080;2023-11-18T16:32:29;11.95;;;6.70;;
76433;SDS011;65265;53.200;6.080;2023-11-18T16:37:22;12.00;;;6.90;;
76433;SDS011;65265;53.200;6.080;2023-11-18T16:42:16;9.95;;;6.43;;
76433;SDS011;65265;53.200;6.080;2023-11-18T16:47:09;9.43;;;6.63;;
76433;SDS011;65265;53.200;6.080;2023-11-18T16:52:01;9.57;;;6.55;;
76433;SDS011;65265;53.200;6.080;2023-11-18T16:56:55;10.05;;;6.45;;
76433;SDS011;65265;53.200;6.080;2023-11-18T17:01:50;8.73;;;5.30;;
76433;SDS011;65265;53.200;6.080;2023-11-18T17:06:43;8.52;;;5.10;;
76433;SDS011;65265;53.200;6.080;2023-11-18T17:11:37;9.00;;;6.45;;
76433;SDS011;65265;53.200;6.080;2023-11-18T17:16:30;7.28;;;4.57;;
76433;SDS011;65265;53.200;6.080;2023-11-18T17:21:25;7.78;;;5.65;;
76433;SDS011;65265;53.200;6.080;2023-11-18T17:26:18;8.40;;;5.63;;
76433;SDS011;65265;53.200;6.080;2023-11-18T17:31:11;7.82;;;4.72;;
76433;SDS011;65265;53.200;6.080;2023-11-18T17:36:03;6.07;;;4.22;;
76433;SDS011;65265;53.200;6.080;2023-11-18T17:40:59;5.40;;;3.92;;
76433;SDS011;65265;53.200;6.080;2023-11-18T17:45:52;5.95;;;4.20;;
76433;SDS011;65265;53.200;6.080;2023-11-18T17:55:39;5.82;;;3.50;;
76433;SDS011;65265;53.200;6.080;2023-11-18T18:00:41;4.93;;;3.20;;
76433;SDS011;65265;53.200;6.080;2023-11-18T18:05:33;5.13;;;4.05;;
76433;SDS011;65265;53.200;6.080;2023-11-18T18:10:25;6.22;;;3.95;;
76433;SDS011;65265;53.200;6.080;2023-11-18T18:20:18;5.43;;;3.92;;
76433;SDS011;65265;53.200;6.080;2023-11-18T18:25:11;6.22;;;4.90;;
76433;SDS011;65265;53.200;6.080;2023-11-18T18:30:03;4.95;;;3.42;;
76433;SDS011;65265;53.200;6.080;2023-11-18T18:34:56;5.72;;;3.85;;
76433;SDS011;65265;53.200;6.080;2023-11-18T18:39:50;5.63;;;3.47;;
76433;SDS011;65265;53.200;6.080;2023-11-18T18:44:43;6.05;;;4.03;;
76433;SDS011;65265;53.200;6.080;2023-11-18T18:49:35;6.22;;;4.10;;
76433;SDS011;65265;53.200;6.080;2023-11-18T18:54:27;6.45;;;4.70;;
76433;SDS011;65265;53.200;6.080;2023-11-18T18:59:22;5.15;;;3.58;;
76433;SDS011;65265;53.200;6.080;2023-11-18T19:04:14;6.57;;;4.38;;
76433;SDS011;65265;53.200;6.080;2023-11-18T19:09:06;6.32;;;4.30;;
76433;SDS011;65265;53.200;6.080;2023-11-18T19:18:53;6.57;;;4.28;;
76433;SDS011;65265;53.200;6.080;2023-11-18T19:23:46;9.38;;;6.90;;
76433;SDS011;65265;53.200;6.080;2023-11-18T19:28:37;6.72;;;4.40;;
76433;SDS011;65265;53.200;6.080;2023-11-18T19:33:30;8.27;;;5.70;;
76433;SDS011;65265;53.200;6.080;2023-11-18T19:38:24;7.93;;;5.32;;
76433;SDS011;65265;53.200;6.080;2023-11-18T19:43:18;9.57;;;5.82;;
76433;SDS011;65265;53.200;6.080;2023-11-18T19:48:11;10.57;;;6.70;;
76433;SDS011;65265;53.200;6.080;2023-11-18T19:53:03;10.90;;;6.70;;
76433;SDS011;65265;53.200;6.080;2023-11-18T19:57:58;11.73;;;5.72;;
76433;SDS011;65265;53.200;6.080;2023-11-18T20:02:53;10.90;;;6.88;;
76433;SDS011;65265;53.200;6.080;2023-11-18T20:07:46;12.15;;;6.30;;
76433;SDS011;65265;53.200;6.080;2023-11-18T20:12:38;11.52;;;7.18;;
76433;SDS011;65265;53.200;6.080;2023-11-18T20:17:32;10.63;;;6.60;;
76433;SDS011;65265;53.200;6.080;2023-11-18T20:22:25;10.77;;;6.82;;
76433;SDS011;65265;53.200;6.080;2023-11-18T20:27:17;10.13;;;6.47;;
76433;SDS011;65265;53.200;6.080;2023-11-18T20:32:10;11.23;;;6.80;;
76433;SDS011;65265;53.200;6.080;2023-11-18T20:37:05;11.20;;;6.18;;
76433;SDS011;65265;53.200;6.080;2023-11-18T20:41:58;10.88;;;6.15;;
76433;SDS011;65265;53.200;6.080;2023-11-18T20:46:50;12.38;;;7.53;;
76433;SDS011;65265;53.200;6.080;2023-11-18T20:51:43;12.80;;;7.93;;
76433;SDS011;65265;53.200;6.080;2023-11-18T20:56:37;12.77;;;6.53;;
76433;SDS011;65265;53.200;6.080;2023-11-18T21:01:30;12.77;;;6.50;;
76433;SDS011;65265;53.200;6.080;2023-11-18T21:06:23;12.95;;;6.75;;
76433;SDS011;65265;53.200;6.080;2023-11-18T21:11:15;12.75;;;6.68;;
76433;SDS011;65265;53.200;6.080;2023-11-18T21:16:13;12.68;;;7.05;;
76433;SDS011;65265;53.200;6.080;2023-11-18T21:21:06;13.80;;;6.85;;
76433;SDS011;65265;53.200;6.080;2023-11-18T21:26:01;12.18;;;6.38;;
76433;SDS011;65265;53.200;6.080;2023-11-18T21:30:53;16.30;;;7.88;;
76433;SDS011;65265;53.200;6.080;2023-11-18T21:40:41;15.00;;;7.50;;
76433;SDS011;65265;53.200;6.080;2023-11-18T21:45:33;17.13;;;8.05;;
76433;SDS011;65265;53.200;6.080;2023-11-18T21:50:28;19.73;;;9.45;;
76433;SDS011;65265;53.200;6.080;2023-11-18T21:55:23;20.20;;;9.95;;
76433;SDS011;65265;53.200;6.080;2023-11-18T22:00:17;20.83;;;10.25;;
76433;SDS011;65265;53.200;6.080;2023-11-18T22:10:03;24.23;;;11.43;;
76433;SDS011;65265;53.200;6.080;2023-11-18T22:14:58;27.63;;;12.65;;
76433;SDS011;65265;53.200;6.080;2023-11-18T22:19:54;28.83;;;11.95;;
76433;SDS011;65265;53.200;6.080;2023-11-18T22:24:48;32.13;;;14.07;;
76433;SDS011;65265;53.200;6.080;2023-11-18T22:29:42;33.00;;;13.98;;
76433;SDS011;65265;53.200;6.080;2023-11-18T22:34:38;35.17;;;15.52;;
76433;SDS011;65265;53.200;6.080;2023-11-18T22:39:31;36.03;;;15.68;;
76433;SDS011;65265;53.200;6.080;2023-11-18T22:44:26;34.90;;;15.25;;
76433;SDS011;65265;53.200;6.080;2023-11-18T22:54:15;31.73;;;12.90;;
76433;SDS011;65265;53.200;6.080;2023-11-18T22:59:10;31.95;;;11.55;;
76433;SDS011;65265;53.200;6.080;2023-11-18T23:04:02;31.92;;;10.52;;
76433;SDS011;65265;53.200;6.080;2023-11-18T23:09:01;30.02;;;9.93;;
76433;SDS011;65265;53.200;6.080;2023-11-18T23:13:58;33.90;;;9.68;;
76433;SDS011;65265;53.200;6.080;2023-11-18T23:18:50;25.27;;;9.55;;
76433;SDS011;65265;53.200;6.080;2023-11-18T23:23:46;29.13;;;8.90;;
76433;SDS011;65265;53.200;6.080;2023-11-18T23:28:39;27.98;;;9.32;;
76433;SDS011;65265;53.200;6.080;2023-11-18T23:33:35;29.98;;;8.38;;
76433;SDS011;65265;53.200;6.080;2023-11-18T23:38:28;29.55;;;8.02;;
76433;SDS011;65265;53.200;6.080;2023-11-18T23:43:21;34.67;;;9.18;;
76433;SDS011;65265;53.200;6.080;2023-11-18T23:48:14;30.30;;;7.40;;
76433;SDS011;65265;53.200;6.080;2023-11-18T23:53:11;21.80;;;6.90;;
76433;SDS011;65265;53.200;6.080;2023-11-18T23:58:04;20.90;;;6.18;;
